Strona główna
METAR-TAF:

METAR-TAF

Lotnisko :

Port lotniczy Czyta

Czyta, Rosja

Szerokość geograficzna: 52-05N, Długość geograficzna: 113-29E, wysokość: 685 m

Aktualna obserwacja pogody

Raport powstał 14 minut temu, godzina 09:00 UTC
Wiatr 4 kt od północ
Temperatura 21°C
Wilgotność 49%
Ciśnienie 1007 hPa
Widzialność 10 km lub więcej
Rozproszone chmury na wysokości 5000 ft, Cumulonimbus.

METAR: UIAA 190900Z 36002MPS 9999 SCT050CB 21/10 Q1007 R29/CLRD70 NOSIG RMK QFE697/0929

czas: 18:14 (09:14 UTC)

Prognoza

Raport powstał 1 godzina i 14 minut temu, godzina 08:00 UTC
Prognoza ważna od 19 godzina 09 UTC do 20 godzina 09 UTC
Wiatr 6 kt od północny zachód
Widzialność 10 km lub więcej
Rozproszone chmury na wysokości 4000 ft, Cumulonimbus.
Przejściowo
od 19 godzina 09 UTC do 19 godzina 15 UTC
Wiatr 10 kt od północno-północny wschód
Przejściowo
od 19 godzina 18 UTC do 20 godzina 01 UTC
Widzialność: 0500 m
na wysokości 100 ft
mgła

TAF: UIAA 190800Z 1909/2009 32003MPS 9999 SCT040CB TEMPO 1909/1915 02005MPS TEMPO 1918/2001 0500 FG VV001

Obserwacja i prognoza pogody dla ponad 4000 lotnisk (raport METAR i TAF).

Dostępne stacje oznaczono żółtymi i czerwonymi punktami na mapie.

Najedź kursorem aby zobaczyć nazwę stacji.

Kliknij aby zobaczyć obserwacje i prognozy pogody.

Aby zmienić mapę: kliknij na zielony przycisk z czarnym krzyżykiem, aby powiększyć; na zielony przycisk z myślnikiem, aby pomniejszyć; na zielone strzałki, aby przejść do map sąsiednich.


METAR-TAF: